Time;durP1;ratioP1;P1;durP2;ratioP2;P2;SDS_P1;SDS_P2;PMS_P1;PMS_P2;Temp;Humidity;BMP_temperature;BMP_pressure;BME280_temperature;BME280_humidity;BME280_pressure;Samples;Min_cycle;Max_cycle;Signal;HPM_P1;HPM_P2
2021/07/17 00:00:24;;;;;;;18.30;15.23;;;21.60;99.90;;;;;;5052132;28;20451;-68
2021/07/17 00:02:54;;;;;;;16.10;13.20;;;21.60;99.90;;;;;;5052299;28;20457;-68
2021/07/17 00:05:24;;;;;;;14.87;12.23;;;21.60;99.90;;;;;;5053164;28;20804;-68
2021/07/17 00:07:53;;;;;;;15.63;13.10;;;21.50;99.90;;;;;;5073698;28;20406;-68
2021/07/17 00:10:25;;;;;;;14.93;13.53;;;21.50;99.90;;;;;;5055582;28;20879;-70
2021/07/17 00:12:53;;;;;;;14.67;12.23;;;21.50;99.90;;;;;;5056226;28;20518;-68
2021/07/17 00:15:24;;;;;;;16.23;12.47;;;21.50;99.90;;;;;;5055660;28;20498;-70
2021/07/17 00:17:54;;;;;;;21.77;14.90;;;21.40;99.90;;;;;;5073802;28;20931;-68
2021/07/17 00:20:23;;;;;;;14.93;11.93;;;21.40;99.90;;;;;;5055352;28;20444;-69
2021/07/17 00:22:51;;;;;;;15.30;12.73;;;21.50;99.90;;;;;;5055745;28;20923;-68
2021/07/17 00:25:22;;;;;;;13.47;12.07;;;21.40;99.90;;;;;;5055415;28;20426;-72
2021/07/17 00:27:51;;;;;;;14.77;13.20;;;21.50;99.90;;;;;;5055618;28;20912;-68
2021/07/17 00:30:20;;;;;;;13.87;12.47;;;21.40;99.90;;;;;;5055424;28;21033;-69
2021/07/17 00:32:49;;;;;;;14.13;12.63;;;21.40;99.90;;;;;;5055692;28;20412;-69
2021/07/17 00:35:19;;;;;;;13.70;12.13;;;21.40;99.90;;;;;;5073415;28;20429;-68
2021/07/17 00:37:47;;;;;;;16.07;12.70;;;21.40;99.90;;;;;;5055225;28;20457;-68
2021/07/17 00:40:20;;;;;;;14.70;13.30;;;21.30;99.90;;;;;;5055100;28;20486;-68
2021/07/17 00:42:49;;;;;;;14.40;11.37;;;21.30;99.90;;;;;;5055249;28;20430;-71
2021/07/17 00:45:19;;;;;;;16.20;13.33;;;21.40;99.90;;;;;;5072808;28;20394;-67
2021/07/17 00:47:47;;;;;;;12.50;11.30;;;21.30;99.90;;;;;;5055538;28;20434;-70
2021/07/17 00:50:19;;;;;;;14.60;11.37;;;21.30;99.90;;;;;;5054982;28;20450;-70
2021/07/17 00:52:47;;;;;;;18.63;13.90;;;21.30;99.90;;;;;;5055009;28;20444;-69
2021/07/17 00:55:16;;;;;;;12.73;11.43;;;21.30;99.90;;;;;;5055111;28;20810;-67
2021/07/17 00:57:48;;;;;;;12.43;10.93;;;21.30;99.90;;;;;;5054705;28;20436;-70
2021/07/17 01:00:18;;;;;;;12.80;11.50;;;21.30;99.90;;;;;;5055331;28;20454;-68
2021/07/17 01:02:48;;;;;;;11.90;10.70;;;21.30;99.90;;;;;;5055129;28;20442;-68
2021/07/17 01:05:19;;;;;;;13.87;12.47;;;21.30;99.90;;;;;;5055072;28;20430;-69
2021/07/17 01:07:48;;;;;;;12.07;10.87;;;21.30;99.90;;;;;;5055255;28;20413;-69
2021/07/17 01:10:19;;;;;;;15.57;11.20;;;21.30;99.90;;;;;;5057252;28;20439;-72
2021/07/17 01:12:48;;;;;;;13.87;11.67;;;21.30;99.90;;;;;;5056281;28;20435;-70
2021/07/17 01:15:17;;;;;;;12.53;11.30;;;21.30;99.90;;;;;;5054713;28;20488;-69
2021/07/17 01:17:45;;;;;;;13.20;11.80;;;21.30;99.90;;;;;;5054245;28;20409;-69
2021/07/17 01:20:16;;;;;;;12.70;10.23;;;21.20;99.90;;;;;;5054580;28;20465;-69
2021/07/17 01:22:46;;;;;;;14.10;12.73;;;21.20;99.90;;;;;;5054098;28;20453;-69
2021/07/17 01:25:18;;;;;;;13.73;10.80;;;21.20;99.90;;;;;;5054729;28;20429;-69
2021/07/17 01:27:46;;;;;;;12.43;11.23;;;21.20;99.90;;;;;;5054367;28;20462;-69
2021/07/17 01:30:18;;;;;;;12.63;11.30;;;21.20;99.90;;;;;;5054922;28;20477;-69
2021/07/17 01:32:47;;;;;;;12.50;11.13;;;21.20;99.90;;;;;;5054142;28;20468;-69
2021/07/17 01:35:16;;;;;;;15.33;11.77;;;21.20;99.90;;;;;;5072103;28;20461;-71
2021/07/17 01:37:46;;;;;;;13.87;12.50;;;21.10;99.90;;;;;;5053813;28;20423;-70
2021/07/17 01:40:19;;;;;;;15.90;11.83;;;21.10;99.90;;;;;;5054035;28;20504;-70
2021/07/17 01:42:49;;;;;;;17.20;12.63;;;21.10;99.90;;;;;;5053808;28;20453;-70
2021/07/17 01:45:27;;;;;;;12.97;11.30;;;21.10;99.90;;;;;;5054183;28;20454;-68
2021/07/17 01:47:56;;;;;;;13.30;12.07;;;21.10;99.90;;;;;;5054149;28;20458;-67
2021/07/17 01:50:29;;;;;;;16.93;12.10;;;21.10;99.90;;;;;;5054528;28;20565;-69
2021/07/17 01:53:00;;;;;;;13.13;11.77;;;21.10;99.90;;;;;;5054402;28;20521;-70
2021/07/17 01:55:28;;;;;;;13.73;11.63;;;21.10;99.90;;;;;;5054110;28;21018;-70
2021/07/17 01:57:58;;;;;;;15.23;12.30;;;21.10;99.90;;;;;;5071639;28;20450;-69
2021/07/17 02:00:28;;;;;;;15.37;10.87;;;21.00;99.90;;;;;;5053749;28;20450;-71
2021/07/17 02:02:57;;;;;;;12.97;11.10;;;21.10;99.90;;;;;;5053311;28;20525;-70
2021/07/17 02:05:27;;;;;;;14.77;10.77;;;21.00;99.90;;;;;;5053509;28;20463;-71
2021/07/17 02:07:56;;;;;;;12.60;10.57;;;21.00;99.90;;;;;;5071308;28;20393;-71
2021/07/17 02:10:27;;;;;;;11.83;10.63;;;20.90;99.90;;;;;;5054043;28;20680;-69
2021/07/17 02:12:57;;;;;;;14.97;10.60;;;20.90;99.90;;;;;;5053802;28;20441;-71
2021/07/17 02:15:25;;;;;;;13.40;10.17;;;20.90;99.90;;;;;;5053578;28;20451;-72
2021/07/17 02:17:56;;;;;;;13.47;10.00;;;20.80;99.90;;;;;;5072950;28;20403;-72
2021/07/17 02:20:25;;;;;;;14.00;10.43;;;20.80;99.90;;;;;;5076968;28;21011;-71
2021/07/17 02:22:53;;;;;;;10.80;9.70;;;20.70;99.90;;;;;;5077214;28;20922;-72
2021/07/17 02:25:22;;;;;;;13.53;11.17;;;20.70;99.90;;;;;;5059239;28;20507;-71
2021/07/17 02:27:52;;;;;;;12.80;8.50;;;20.60;99.90;;;;;;5058575;28;20987;-71
2021/07/17 02:30:20;;;;;;;9.17;8.17;;;20.50;99.90;;;;;;5080232;28;20413;-71
2021/07/17 02:32:49;;;;;;;10.53;9.50;;;20.50;99.90;;;;;;5065705;28;20433;-70
2021/07/17 02:35:17;;;;;;;9.70;8.70;;;20.50;99.90;;;;;;5064323;28;20433;-71
2021/07/17 02:37:46;;;;;;;10.37;8.50;;;20.50;99.90;;;;;;5058909;28;20434;-70
2021/07/17 02:40:15;;;;;;;14.30;9.13;;;20.50;99.90;;;;;;5058281;28;20462;-71
2021/07/17 02:42:43;;;;;;;9.80;8.80;;;20.40;99.90;;;;;;5059816;28;20481;-69
2021/07/17 02:45:14;;;;;;;9.67;8.67;;;20.50;99.90;;;;;;5062636;28;20956;-71
2021/07/17 02:47:42;;;;;;;11.87;9.30;;;20.50;99.90;;;;;;5061388;28;20429;-72
2021/07/17 02:50:12;;;;;;;9.37;8.07;;;20.40;99.90;;;;;;5075857;28;20655;-72
2021/07/17 02:52:41;;;;;;;17.93;9.23;;;20.40;99.90;;;;;;5053417;28;20477;-72
2021/07/17 02:55:10;;;;;;;9.73;7.63;;;20.50;99.90;;;;;;5052693;28;20470;-69
2021/07/17 02:57:39;;;;;;;10.10;8.87;;;20.50;99.90;;;;;;5069704;28;20434;-71
2021/07/17 03:00:10;;;;;;;8.47;7.73;;;20.50;99.90;;;;;;5052685;28;20515;-70
2021/07/17 03:02:40;;;;;;;9.63;7.63;;;20.50;99.90;;;;;;5053274;28;20990;-70
2021/07/17 03:05:10;;;;;;;8.93;8.00;;;20.50;99.90;;;;;;5052409;28;20481;-71
2021/07/17 03:07:39;;;;;;;9.40;7.63;;;20.50;99.90;;;;;;5054227;28;20460;-72
2021/07/17 03:10:08;;;;;;;9.50;8.17;;;20.50;99.90;;;;;;5063643;28;20498;-72
2021/07/17 03:12:36;;;;;;;9.13;7.80;;;20.50;99.90;;;;;;5062267;28;20564;-72
2021/07/17 03:15:05;;;;;;;9.37;8.47;;;20.50;99.90;;;;;;5058708;28;20438;-70
2021/07/17 03:17:34;;;;;;;10.00;8.30;;;20.50;99.90;;;;;;5053184;28;20499;-71
2021/07/17 03:20:05;;;;;;;11.63;8.37;;;20.40;99.90;;;;;;5070735;28;20420;-71
2021/07/17 03:22:34;;;;;;;9.40;8.40;;;20.40;99.90;;;;;;5053081;28;20434;-70
2021/07/17 03:25:02;;;;;;;9.10;8.10;;;20.40;99.90;;;;;;5052811;28;20442;-70
2021/07/17 03:27:31;;;;;;;7.67;6.90;;;20.40;99.90;;;;;;5053115;28;20748;-71
2021/07/17 03:29:59;;;;;;;13.87;7.63;;;20.50;99.90;;;;;;5070639;28;20482;-70
2021/07/17 03:32:28;;;;;;;8.30;7.60;;;20.40;99.90;;;;;;5053078;28;20434;-70
2021/07/17 03:34:57;;;;;;;11.83;8.10;;;20.40;99.90;;;;;;5052495;28;20438;-71
2021/07/17 03:37:27;;;;;;;9.90;9.00;;;20.40;99.90;;;;;;5052893;28;20477;-70
2021/07/17 03:39:56;;;;;;;8.70;7.80;;;20.40;99.90;;;;;;5054469;28;20939;-71
2021/07/17 03:42:24;;;;;;;12.80;8.87;;;20.50;99.90;;;;;;5056786;28;20457;-70
2021/07/17 03:44:52;;;;;;;9.10;8.20;;;20.50;99.90;;;;;;5056524;28;20441;-69
2021/07/17 03:47:21;;;;;;;8.00;7.00;;;20.60;99.90;;;;;;5056681;28;20480;-70
2021/07/17 03:49:49;;;;;;;9.10;7.37;;;20.60;99.90;;;;;;5056245;28;20516;-70
2021/07/17 03:52:18;;;;;;;13.57;9.77;;;20.60;99.90;;;;;;5056741;28;20970;-70
2021/07/17 03:54:47;;;;;;;12.70;8.70;;;20.60;99.90;;;;;;5074383;28;20406;-69
2021/07/17 03:57:16;;;;;;;9.20;7.83;;;20.60;99.90;;;;;;5056360;28;20602;-71
2021/07/17 03:59:45;;;;;;;11.77;7.80;;;20.60;99.90;;;;;;5056257;28;20461;-70
2021/07/17 04:02:13;;;;;;;10.53;8.77;;;20.50;99.90;;;;;;5056239;28;20488;-70
2021/07/17 04:04:47;;;;;;;10.87;7.40;;;20.50;99.90;;;;;;5056561;28;20445;-70
2021/07/17 04:07:16;;;;;;;10.90;7.63;;;20.50;99.90;;;;;;5056213;28;20454;-70
2021/07/17 04:09:44;;;;;;;7.73;7.03;;;20.60;99.90;;;;;;5056816;28;20438;-70
2021/07/17 04:12:14;;;;;;;8.67;7.17;;;20.60;99.90;;;;;;5057305;28;20441;-70
2021/07/17 04:14:42;;;;;;;6.70;6.10;;;20.60;99.90;;;;;;5074286;28;20402;-69
2021/07/17 04:17:11;;;;;;;9.27;7.63;;;20.60;99.90;;;;;;5074801;28;20441;-70
2021/07/17 04:19:39;;;;;;;8.47;6.50;;;20.60;99.90;;;;;;5056641;28;20465;-69
2021/07/17 04:22:08;;;;;;;8.17;6.80;;;20.60;99.90;;;;;;5056474;28;20904;-70
2021/07/17 04:24:36;;;;;;;9.60;8.67;;;20.70;99.90;;;;;;5065149;23;20546;-85
2021/07/17 04:27:04;;;;;;;12.63;7.10;;;20.80;99.90;;;;;;5038401;28;20925;-84
2021/07/17 04:29:34;;;;;;;9.63;7.73;;;20.90;99.90;;;;;;5020183;28;20441;-84
2021/07/17 04:32:02;;;;;;;10.10;8.40;;;20.90;99.90;;;;;;5037208;28;20420;-84
2021/07/17 04:34:31;;;;;;;8.53;7.40;;;20.80;99.90;;;;;;5055137;28;20456;-85
2021/07/17 04:36:59;;;;;;;9.13;7.70;;;20.90;99.90;;;;;;5056483;28;20455;-85
2021/07/17 04:39:27;;;;;;;10.57;8.40;;;21.00;99.90;;;;;;5057000;28;20423;-85
2021/07/17 04:41:55;;;;;;;10.73;8.13;;;21.00;99.90;;;;;;5056403;28;20412;-85
2021/07/17 04:44:24;;;;;;;11.10;8.10;;;21.00;99.90;;;;;;5056206;28;20449;-85
2021/07/17 04:46:53;;;;;;;9.80;8.80;;;21.10;99.90;;;;;;5056062;28;20426;-84
2021/07/17 04:49:21;;;;;;;10.77;9.67;;;21.10;99.90;;;;;;5056595;28;20476;-84
2021/07/17 04:51:50;;;;;;;13.03;9.53;;;21.10;99.90;;;;;;5055406;28;20402;-84
2021/07/17 04:54:18;;;;;;;16.40;10.17;;;21.00;99.90;;;;;;5056182;28;20973;-85
2021/07/17 04:56:46;;;;;;;8.90;7.83;;;21.00;99.90;;;;;;5056073;28;20455;-85
2021/07/17 04:59:14;;;;;;;10.50;8.83;;;21.00;99.90;;;;;;5059875;28;20843;-85
2021/07/17 05:01:42;;;;;;;10.73;8.10;;;21.00;99.90;;;;;;5067277;28;20406;-83
2021/07/17 05:04:12;;;;;;;10.07;9.07;;;20.90;99.90;;;;;;5066870;28;20980;-84
2021/07/17 05:06:40;;;;;;;12.60;8.07;;;20.90;99.90;;;;;;5059213;28;20927;-84
2021/07/17 05:09:08;;;;;;;10.73;8.40;;;20.90;99.90;;;;;;5057927;28;20427;-84
2021/07/17 05:11:36;;;;;;;9.03;8.13;;;20.90;99.90;;;;;;5057855;28;20419;-83
2021/07/17 05:14:04;;;;;;;9.43;8.20;;;20.90;99.90;;;;;;5056593;28;20414;-85
2021/07/17 05:16:32;;;;;;;8.33;7.60;;;21.00;99.90;;;;;;5039032;28;20438;-84
2021/07/17 05:19:01;;;;;;;22.70;10.13;;;21.00;99.90;;;;;;5056548;28;20775;-85
2021/07/17 05:21:30;;;;;;;12.90;8.27;;;21.00;99.90;;;;;;5038454;28;20474;-84
2021/07/17 05:23:58;;;;;;;10.33;9.10;;;21.00;99.90;;;;;;5056723;28;20458;-83
2021/07/17 05:26:26;;;;;;;9.00;8.07;;;21.00;99.90;;;;;;5057016;28;20423;-82
2021/07/17 05:28:55;;;;;;;11.63;9.17;;;21.00;99.90;;;;;;5063681;28;20398;-84
2021/07/17 05:31:23;;;;;;;10.33;9.33;;;21.20;99.90;;;;;;5062510;28;20430;-84
2021/07/17 05:33:51;;;;;;;13.07;10.30;;;21.30;99.90;;;;;;5055815;28;20446;-84
2021/07/17 05:36:19;;;;;;;8.90;8.00;;;21.40;99.90;;;;;;5055805;28;20952;-84
2021/07/17 05:38:48;;;;;;;14.10;10.00;;;21.60;99.90;;;;;;5037833;28;20506;-83
2021/07/17 05:41:16;;;;;;;10.10;8.53;;;21.80;99.90;;;;;;5057987;28;20416;-84
2021/07/17 05:43:44;;;;;;;9.80;8.80;;;21.90;99.90;;;;;;5055376;28;20538;-85
2021/07/17 05:46:13;;;;;;;13.30;9.90;;;22.10;99.90;;;;;;5055189;28;20503;-85
2021/07/17 05:48:41;;;;;;;12.33;11.03;;;22.10;99.90;;;;;;5055759;28;20500;-85
2021/07/17 05:51:09;;;;;;;16.27;11.63;;;22.10;99.90;;;;;;5058922;28;20434;-84
2021/07/17 05:53:38;;;;;;;13.60;10.77;;;21.90;99.90;;;;;;5056631;28;20447;-83
2021/07/17 05:56:08;;;;;;;13.40;11.70;;;21.70;99.90;;;;;;5058838;28;20418;-84
2021/07/17 05:58:36;;;;;;;16.00;11.43;;;21.70;99.90;;;;;;5056427;28;20418;-84
2021/07/17 06:01:04;;;;;;;14.20;12.80;;;21.70;99.90;;;;;;5055995;28;20428;-84
2021/07/17 06:03:33;;;;;;;16.77;12.77;;;21.80;99.90;;;;;;5055029;28;20455;-85
2021/07/17 06:06:01;;;;;;;14.47;12.90;;;21.90;99.90;;;;;;5055823;28;20420;-86
2021/07/17 06:08:29;;;;;;;18.40;14.03;;;21.80;99.90;;;;;;5055539;28;20402;-85
2021/07/17 06:10:57;;;;;;;19.43;13.90;;;21.80;99.90;;;;;;5055371;28;20407;-84
2021/07/17 06:13:27;;;;;;;15.63;13.80;;;21.80;99.90;;;;;;5054902;28;20451;-84
2021/07/17 06:15:55;;;;;;;20.33;12.37;;;21.80;99.90;;;;;;5055532;28;20974;-85
2021/07/17 06:18:23;;;;;;;18.33;14.47;;;21.80;99.90;;;;;;5055868;28;20451;-86
2021/07/17 06:20:51;;;;;;;15.27;13.67;;;21.90;99.90;;;;;;5038045;28;20431;-85
2021/07/17 06:23:19;;;;;;;19.10;14.77;;;21.90;99.90;;;;;;5055697;28;21030;-85
2021/07/17 06:25:47;;;;;;;18.50;14.13;;;21.90;99.90;;;;;;5056220;28;20442;-84
2021/07/17 06:28:15;;;;;;;18.97;15.80;;;21.90;99.90;;;;;;5056774;28;20427;-85
2021/07/17 06:30:45;;;;;;;17.67;14.43;;;21.80;99.90;;;;;;5055885;28;20818;-84
2021/07/17 06:33:13;;;;;;;17.73;14.97;;;22.00;99.90;;;;;;5055049;28;20451;-85
2021/07/17 06:35:41;;;;;;;22.53;15.03;;;22.10;99.90;;;;;;5055631;28;20423;-84
2021/07/17 06:38:09;;;;;;;15.40;13.77;;;22.30;99.90;;;;;;5054971;28;20467;-86
2021/07/17 06:40:37;;;;;;;20.17;15.03;;;22.50;99.90;;;;;;5054983;28;20423;-85
2021/07/17 06:43:05;;;;;;;21.73;15.40;;;22.50;99.90;;;;;;5055725;28;20443;-85
2021/07/17 06:45:33;;;;;;;17.93;15.53;;;22.50;99.90;;;;;;5039410;28;20503;-85
2021/07/17 06:48:03;;;;;;;20.50;16.47;;;22.50;99.90;;;;;;5046215;28;20482;-85
2021/07/17 06:50:31;;;;;;;20.00;15.97;;;22.50;99.90;;;;;;5042894;28;20437;-85
2021/07/17 06:52:59;;;;;;;21.67;16.27;;;22.50;99.90;;;;;;5070472;28;20481;-85
2021/07/17 06:55:28;;;;;;;16.77;14.20;;;22.30;99.90;;;;;;5065635;28;20432;-85
2021/07/17 06:57:57;;;;;;;17.97;16.20;;;22.30;99.90;;;;;;5069154;28;20980;-85
2021/07/17 07:00:25;;;;;;;17.53;15.80;;;22.20;99.90;;;;;;5063135;28;20773;-84
2021/07/17 07:02:53;;;;;;;17.80;16.00;;;22.20;99.90;;;;;;5057779;28;20450;-84
2021/07/17 07:05:23;;;;;;;18.43;15.33;;;22.20;99.90;;;;;;5055367;28;20481;-86
2021/07/17 07:07:51;;;;;;;18.43;16.43;;;22.10;99.90;;;;;;5056582;28;20424;-86
2021/07/17 07:10:19;;;;;;;19.83;16.03;;;22.20;99.90;;;;;;5058674;28;20419;-85
2021/07/17 07:12:48;;;;;;;18.43;15.43;;;22.10;99.90;;;;;;5044077;28;20459;-84
2021/07/17 07:15:17;;;;;;;18.03;15.87;;;22.00;99.90;;;;;;5065390;28;20424;-85
2021/07/17 07:17:45;;;;;;;18.80;16.80;;;22.10;99.90;;;;;;5064731;28;20432;-84
2021/07/17 07:20:15;;;;;;;20.37;17.13;;;22.30;99.90;;;;;;5064207;28;20499;-85
2021/07/17 07:22:45;;;;;;;19.47;17.33;;;22.50;99.90;;;;;;5065516;28;20790;-84
2021/07/17 07:25:13;;;;;;;20.73;14.97;;;22.70;99.90;;;;;;5063899;28;20740;-85
2021/07/17 07:27:42;;;;;;;17.57;15.27;;;22.90;99.90;;;;;;5065593;28;20419;-84
2021/07/17 07:30:10;;;;;;;19.47;16.50;;;23.20;99.90;;;;;;5073275;28;20491;-84
2021/07/17 07:32:47;;;;;;;15.30;13.90;;;23.50;99.90;;;;;;5060365;28;20437;-83
2021/07/17 07:35:16;;;;;;;16.63;14.13;;;23.60;99.90;;;;;;5075975;28;20483;-83
2021/07/17 07:37:51;;;;;;;18.33;14.57;;;23.60;99.90;;;;;;5081965;28;20471;-82
2021/07/17 07:40:20;;;;;;;16.37;14.67;;;23.60;99.90;;;;;;5081186;28;20413;-83
2021/07/17 07:42:48;;;;;;;16.87;14.73;;;23.50;99.90;;;;;;5076702;28;20541;-85
2021/07/17 07:45:17;;;;;;;19.00;15.33;;;23.60;99.90;;;;;;5076426;28;20435;-85
2021/07/17 07:47:45;;;;;;;16.43;14.63;;;23.60;99.90;;;;;;5076281;28;20425;-84
2021/07/17 07:50:13;;;;;;;18.43;16.53;;;23.40;99.90;;;;;;5078925;28;20392;-84
2021/07/17 07:52:42;;;;;;;18.43;15.43;;;23.50;99.90;;;;;;5057737;28;20405;-85
2021/07/17 07:55:17;;;;;;;15.93;14.13;;;23.70;99.90;;;;;;5073298;28;20517;-84
2021/07/17 07:57:45;;;;;;;18.50;16.27;;;23.80;99.90;;;;;;5077504;28;20465;-83
2021/07/17 08:00:15;;;;;;;19.80;15.87;;;23.70;99.90;;;;;;5080307;28;20403;-84
2021/07/17 08:02:58;;;;;;;18.37;15.90;;;23.80;99.90;;;;;;5071329;28;20447;-84
2021/07/17 08:05:27;;;;;;;15.07;13.47;;;23.80;99.90;;;;;;5075450;28;20434;-84
2021/07/17 08:07:55;;;;;;;16.40;14.57;;;24.00;99.90;;;;;;5073648;28;20407;-83
2021/07/17 08:10:25;;;;;;;14.47;12.97;;;24.10;99.90;;;;;;5071964;28;20398;-85
2021/07/17 08:12:53;;;;;;;14.77;12.80;;;24.30;99.90;;;;;;5064121;28;20443;-85
2021/07/17 08:15:22;;;;;;;14.80;13.20;;;24.30;99.90;;;;;;5065362;28;20453;-86
2021/07/17 08:17:50;;;;;;;17.73;13.67;;;24.20;99.90;;;;;;5045836;28;20959;-85
2021/07/17 08:20:18;;;;;;;13.90;12.23;;;24.20;99.90;;;;;;5066683;28;20389;-85
2021/07/17 08:22:46;;;;;;;18.00;14.13;;;24.00;99.90;;;;;;5053219;28;20455;-85
2021/07/17 08:25:14;;;;;;;13.97;12.57;;;23.90;99.90;;;;;;5051879;28;20438;-84
2021/07/17 08:27:44;;;;;;;17.97;12.93;;;23.90;99.90;;;;;;5063699;28;20419;-84
2021/07/17 08:30:13;;;;;;;16.53;14.83;;;23.90;99.90;;;;;;5065199;28;20407;-85
2021/07/17 08:33:01;;;;;;;13.80;12.40;;;23.80;99.90;;;;;;5064965;28;20857;-85
2021/07/17 08:35:32;;;;;;;15.27;13.13;;;23.80;99.90;;;;;;5062519;28;20455;-85
2021/07/17 08:38:00;;;;;;;14.57;13.00;;;23.80;99.90;;;;;;5063404;28;20419;-86
2021/07/17 08:40:29;;;;;;;14.50;12.57;;;24.10;99.90;;;;;;5053753;28;20415;-85
2021/07/17 08:42:58;;;;;;;13.97;12.37;;;24.00;99.90;;;;;;5073542;28;20493;-86
2021/07/17 08:45:27;;;;;;;16.57;14.90;;;24.00;99.90;;;;;;5056738;28;20427;-84
2021/07/17 08:47:57;;;;;;;13.93;12.53;;;24.10;99.90;;;;;;5075846;28;20423;-85
2021/07/17 08:50:27;;;;;;;14.40;12.90;;;24.20;99.90;;;;;;5066581;28;20488;-86
2021/07/17 08:52:57;;;;;;;17.87;14.13;;;24.30;99.90;;;;;;5058081;28;21019;-85
2021/07/17 08:55:26;;;;;;;15.03;13.57;;;24.40;99.90;;;;;;5058983;28;20442;-85
2021/07/17 08:57:55;;;;;;;12.37;11.07;;;24.50;99.90;;;;;;5060114;28;20423;-85
2021/07/17 09:00:28;;;;;;;13.73;12.33;;;24.50;99.90;;;;;;5061147;28;20419;-85
2021/07/17 09:02:59;;;;;;;14.53;13.03;;;24.40;99.90;;;;;;5053498;28;20521;-85
2021/07/17 09:05:30;;;;;;;16.07;13.27;;;24.40;99.90;;;;;;5075937;28;20450;-86
2021/07/17 09:07:59;;;;;;;15.40;12.57;;;24.50;99.90;;;;;;5071590;28;20419;-84
2021/07/17 09:10:34;;;;;;;14.33;12.83;;;24.50;99.90;;;;;;5061173;28;20499;-85
2021/07/17 09:13:19;;;;;;;15.17;13.77;;;24.50;99.90;;;;;;5058459;28;20884;-85
2021/07/17 09:16:00;;;;;;;16.60;14.30;;;24.40;99.90;;;;;;5040162;28;20889;-84
2021/07/17 09:18:31;;;;;;;14.87;13.30;;;24.30;99.90;;;;;;5058897;28;20451;-85
2021/07/17 09:21:04;;;;;;;14.37;13.03;;;24.50;99.90;;;;;;5057479;28;20427;-85
2021/07/17 09:23:34;;;;;;;18.07;13.90;;;24.50;99.90;;;;;;5056574;28;20530;-85
2021/07/17 09:26:20;;;;;;;14.43;13.03;;;24.60;99.90;;;;;;5056301;28;20979;-85
2021/07/17 09:29:01;;;;;;;14.67;13.27;;;24.80;99.90;;;;;;5055035;28;20427;-84
2021/07/17 09:31:32;;;;;;;16.67;12.50;;;24.90;99.90;;;;;;5057487;28;20436;-85
2021/07/17 09:34:08;;;;;;;14.40;13.00;;;24.90;99.90;;;;;;5054410;28;21014;-85
2021/07/17 09:36:50;;;;;;;21.13;14.20;;;24.80;99.90;;;;;;5041524;28;20542;-85
2021/07/17 09:39:20;;;;;;;14.87;13.30;;;24.80;99.90;;;;;;5059166;28;20455;-85
2021/07/17 09:41:55;;;;;;;14.50;13.00;;;24.80;99.90;;;;;;5059657;28;20457;-84
2021/07/17 09:44:25;;;;;;;15.87;11.73;;;24.70;99.90;;;;;;5059288;28;20469;-85
2021/07/17 09:46:55;;;;;;;15.53;13.90;;;24.60;99.90;;;;;;5060481;28;20465;-83
2021/07/17 09:49:25;;;;;;;14.33;12.97;;;24.50;99.90;;;;;;5059897;28;20859;-85
2021/07/17 09:52:10;;;;;;;17.83;13.90;;;24.50;99.90;;;;;;5061413;28;20473;-84
2021/07/17 09:54:39;;;;;;;15.17;13.67;;;24.40;99.90;;;;;;5045093;28;20465;-86
2021/07/17 09:57:08;;;;;;;14.53;12.17;;;24.50;99.90;;;;;;5063550;28;20517;-85
2021/07/17 09:59:37;;;;;;;16.00;13.73;;;24.60;99.90;;;;;;5046225;28;20459;-85
2021/07/17 10:02:06;;;;;;;15.07;13.57;;;24.70;99.90;;;;;;5065086;28;20442;-85
2021/07/17 10:04:50;;;;;;;14.37;12.87;;;25.00;99.90;;;;;;5044546;28;20459;-84
2021/07/17 10:07:20;;;;;;;15.60;12.80;;;25.20;99.90;;;;;;5064204;28;20419;-84
2021/07/17 10:09:51;;;;;;;16.50;12.87;;;25.60;99.90;;;;;;5061663;28;20491;-85
2021/07/17 10:12:32;;;;;;;17.27;12.70;;;25.70;99.90;;;;;;5043434;28;20434;-85
2021/07/17 10:15:01;;;;;;;14.53;12.90;;;25.50;99.90;;;;;;5061042;28;20832;-85
2021/07/17 10:17:38;;;;;;;14.87;13.37;;;25.40;99.90;;;;;;5060668;28;20405;-83
2021/07/17 10:20:08;;;;;;;13.67;12.37;;;25.40;99.90;;;;;;5063414;28;20482;-85
2021/07/17 10:22:37;;;;;;;13.67;12.27;;;25.40;99.90;;;;;;5068059;28;20426;-84
2021/07/17 10:25:07;;;;;;;15.10;13.67;;;25.40;99.90;;;;;;5069040;28;20840;-85
2021/07/17 10:27:38;;;;;;;15.23;13.73;;;25.50;99.90;;;;;;5068418;28;20514;-85
2021/07/17 10:30:09;;;;;;;16.10;13.77;;;25.50;99.90;;;;;;5082630;23;20492;-80
2021/07/17 10:32:54;;;;;;;15.67;14.10;;;25.60;99.90;;;;;;5095877;28;20433;-79
2021/07/17 10:35:22;;;;;;;15.13;13.37;;;25.50;99.90;;;;;;5094818;28;20437;-79
2021/07/17 10:37:55;;;;;;;14.57;13.00;;;25.80;99.90;;;;;;5095003;28;20802;-80
2021/07/17 10:40:24;;;;;;;15.03;13.43;;;26.00;99.90;;;;;;5095057;28;20507;-82
2021/07/17 10:42:55;;;;;;;17.10;13.70;;;26.00;99.90;;;;;;5095997;28;20424;-80
2021/07/17 10:45:34;;;;;;;14.37;12.57;;;26.30;99.90;;;;;;5095319;28;21011;-81
2021/07/17 10:48:21;;;;;;;14.37;13.03;;;26.60;99.90;;;;;;5076963;28;20516;-81
2021/07/17 10:50:51;;;;;;;14.80;13.20;;;27.00;97.80;;;;;;5095028;28;20422;-78
2021/07/17 10:53:42;;;;;;;14.00;12.70;;;26.80;99.20;;;;;;5084797;28;20414;-81
2021/07/17 10:56:37;;;;;;;15.07;13.57;;;26.70;98.70;;;;;;5072152;28;20928;-81
2021/07/17 10:59:10;;;;;;;15.50;12.70;;;26.60;99.20;;;;;;5076871;28;20516;-81
2021/07/17 11:02:04;;;;;;;15.03;13.47;;;26.40;99.90;;;;;;5077388;28;20792;-81
2021/07/17 11:04:39;;;;;;;16.57;12.73;;;26.40;99.90;;;;;;5077671;28;20438;-82
2021/07/17 11:07:44;;;;;;;14.00;12.50;;;26.80;99.90;;;;;;5058942;28;20453;-79
2021/07/17 11:10:21;;;;;;;13.97;12.70;;;27.30;95.50;;;;;;5061081;28;20454;-82
2021/07/17 11:12:56;;;;;;;15.07;13.67;;;27.00;91.60;;;;;;5067187;28;20426;-81
2021/07/17 11:15:49;;;;;;;13.13;11.93;;;26.70;95.10;;;;;;5066500;28;20433;-82
2021/07/17 11:18:40;;;;;;;15.00;12.80;;;26.70;97.40;;;;;;5080496;28;20909;-81
2021/07/17 11:21:25;;;;;;;13.30;12.00;;;26.90;94.40;;;;;;5077576;28;20470;-81
2021/07/17 11:23:53;;;;;;;11.00;9.90;;;26.90;88.10;;;;;;5060037;28;20426;-82
2021/07/17 11:26:23;;;;;;;11.90;10.80;;;27.20;82.40;;;;;;5076946;28;20414;-82
2021/07/17 11:29:05;;;;;;;13.40;11.23;;;27.30;68.80;;;;;;5076667;28;20445;-84
2021/07/17 11:31:42;;;;;;;11.90;10.70;;;27.20;71.10;;;;;;5059221;28;20516;-83
2021/07/17 11:34:44;;;;;;;13.83;12.47;;;27.20;73.30;;;;;;5057402;28;20422;-81
2021/07/17 11:37:28;;;;;;;12.70;11.50;;;27.30;72.30;;;;;;5075963;28;20436;-82
2021/07/17 11:40:02;;;;;;;20.40;13.20;;;27.60;60.30;;;;;;5075312;28;20474;-81
2021/07/17 11:42:36;;;;;;;12.87;11.57;;;27.70;58.90;;;;;;5057553;28;20427;-82
2021/07/17 11:45:06;;;;;;;12.53;11.27;;;27.30;60.00;;;;;;5077491;28;20410;-82
2021/07/17 11:47:34;;;;;;;13.80;11.70;;;27.20;68.10;;;;;;5075532;28;20418;-82
2021/07/17 11:50:04;;;;;;;13.23;10.67;;;27.20;67.70;;;;;;5076879;28;20442;-83
2021/07/17 11:52:36;;;;;;;12.73;10.30;;;27.40;56.10;;;;;;5076714;28;20509;-81
2021/07/17 11:55:09;;;;;;;14.13;11.33;;;27.60;52.10;;;;;;5056324;28;20442;-79
2021/07/17 11:57:40;;;;;;;13.30;10.77;;;27.60;50.30;;;;;;5056921;28;20427;-81
2021/07/17 12:00:11;;;;;;;12.20;10.73;;;27.40;51.30;;;;;;5075100;28;20466;-80
2021/07/17 12:02:57;;;;;;;11.30;10.20;;;27.40;52.60;;;;;;5079271;28;20491;-81
2021/07/17 12:05:27;;;;;;;12.37;11.27;;;27.60;47.70;;;;;;5078773;28;20430;-80
2021/07/17 12:07:57;;;;;;;12.60;11.40;;;27.70;44.40;;;;;;5078578;28;20410;-81
2021/07/17 12:10:28;;;;;;;12.33;11.03;;;27.80;44.20;;;;;;5078633;28;20442;-81
2021/07/17 12:12:59;;;;;;;12.30;11.20;;;28.00;42.70;;;;;;5060688;28;20430;-81
2021/07/17 12:15:34;;;;;;;10.80;9.80;;;28.30;40.00;;;;;;5061321;28;20446;-80
2021/07/17 12:18:05;;;;;;;12.60;11.50;;;28.60;36.00;;;;;;5068409;28;20434;-80
2021/07/17 12:20:35;;;;;;;11.83;10.63;;;28.60;30.60;;;;;;5067642;28;20470;-80
2021/07/17 12:23:07;;;;;;;12.13;11.00;;;28.50;33.60;;;;;;5067806;28;20441;-80
2021/07/17 12:25:37;;;;;;;11.47;9.97;;;28.00;34.70;;;;;;5062827;28;20477;-81
2021/07/17 12:28:08;;;;;;;10.23;9.27;;;27.80;36.30;;;;;;5079048;28;20450;-83
2021/07/17 12:30:39;;;;;;;12.90;10.53;;;27.70;36.70;;;;;;5063084;28;20458;-84
2021/07/17 12:33:12;;;;;;;10.20;9.10;;;27.80;36.90;;;;;;5062578;28;20513;-84
2021/07/17 12:35:41;;;;;;;11.20;10.00;;;27.90;34.40;;;;;;5080783;28;20893;-83
2021/07/17 12:38:18;;;;;;;11.40;10.20;;;28.20;33.30;;;;;;5062145;28;20469;-83
2021/07/17 12:40:59;;;;;;;12.70;11.50;;;28.30;33.50;;;;;;5081821;28;20450;-81
2021/07/17 12:43:32;;;;;;;12.53;10.30;;;28.30;29.80;;;;;;5082353;28;20427;-82
2021/07/17 12:46:10;;;;;;;11.90;10.70;;;27.80;30.60;;;;;;5080447;28;20434;-83
2021/07/17 12:48:53;;;;;;;11.70;10.60;;;27.70;33.00;;;;;;5078015;28;20472;-82